Nakhchivan — 9HHK8 — position and weather

sailwx.info

Track history (hours):
 
Tides and Currents Weather Stations Pressure Air Temp Water Temp Dewpoint Dewpoint Depression Visibility Wind Speed Wind Dir Waves Ship Positions

Nakhchivan

Last reported at 2017-Jul-26 13:15 UTC. Time now 2017-Aug-20 13:40 UTC.
Position N 34°30' E 030°53'.
Warning: this ship's position is 25 days out of date.

Length 139 m; draft 3.8 m.

Type: Cargo ship. MMSI: 215983000.

Date/timePositionNaut miles runAvg speedWind from/ knotsBaromVisibWave heightAir tempDewpointWater temp
2017-Jul-26 13:15N 34°30' E 030°53'4 9.3
2017-Jul-26 12:51N 34°28' E 030°57'3 9.4
2017-Jul-26 12:30N 34°27' E 031°01'9 9.3
2017-Jul-26 11:29N 34°23' E 031°11'5 9.4
2017-Jul-26 11:00N 34°21' E 031°16'5 9.4
2017-Jul-26 10:29N 34°19' E 031°21'5 9.4
2017-Jul-26 10:00N 34°16' E 031°26'5 9.5
2017-Jul-26 09:30N 34°14' E 031°31'5 9.6
2017-Jul-26 09:00N 34°12' E 031°36'5 9.7
2017-Jul-26 08:30N 34°10' E 031°41'5 9.7
2017-Jul-26 08:00N 34°08' E 031°46'5 9.7
2017-Jul-26 07:29N 34°05' E 031°52'5 9.8
2017-Jul-26 07:00N 34°03' E 031°57'5 9.8
2017-Jul-26 06:30N 34°01' E 032°02'5 9.7
2017-Jul-26 06:00N 33°59' E 032°07'5 9.6
2017-Jul-26 05:30N 33°57' E 032°13'5 9.5
2017-Jul-26 05:00N 33°55' E 032°18'11 9.5
2017-Jul-26 03:51N 33°50' E 032°30'3 9.5
2017-Jul-26 03:30N 33°48' E 032°33'5 9.6
2017-Jul-26 03:00N 33°46' E 032°38'5 9.6
2017-Jul-26 02:27N 33°44' E 032°44'4 9.7
2017-Jul-26 02:00N 33°42' E 032°49'5 9.8
2017-Jul-26 01:31N 33°40' E 032°54'7 9.8
2017-Jul-26 00:51N 33°37' E 033°01'4 9.8
2017-Jul-26 00:26N 33°35' E 033°05'4 9.7
2017-Jul-25 23:59N 33°33' E 033°10'6 9.6
2017-Jul-25 23:24N 33°30' E 033°16'6 9.7
2017-Jul-25 22:46N 33°27' E 033°22'3 9.7
2017-Jul-25 22:29N 33°26' E 033°25'5 9.7
2017-Jul-25 22:00N 33°24' E 033°30'5 9.8
2017-Jul-25 21:30N 33°22' E 033°35'5 9.7
2017-Jul-25 21:00N 33°19' E 033°41'10 9.8
2017-Jul-25 19:57N 33°15' E 033°51'14 9.8
2017-Jul-25 18:34N 33°09' E 034°06'1 9.8
2017-Jul-25 18:29N 33°08' E 034°07'5 9.8
2017-Jul-25 17:59N 33°06' E 034°12'5 9.8
2017-Jul-25 17:30N 33°04' E 034°17'5 9.8
2017-Jul-25 16:59N 33°02' E 034°22'5 9.7
2017-Jul-25 16:30N 32°60' E 034°28'5 9.5
2017-Jul-25 16:00N 32°58' E 034°33'5 9.6
2017-Jul-25 15:30N 32°57' E 034°38'5 9.6
2017-Jul-25 15:00N 32°56' E 034°44'10 9.5
2017-Jul-25 13:58N 32°53' E 034°55'4 9.4
2017-Jul-25 13:31N 32°51' E 034°60'2 4.1
2017-Jul-25 13:00N 32°49' E 035°00'1 0.0
2017-Jul-24 23:56N 32°50' E 034°60'0 0.0
2017-Jul-24 02:39N 32°50' E 034°60'0 0.0
2017-Jul-24 02:28N 32°50' E 034°60'0 0.0
2017-Jul-24 01:58N 32°50' E 034°60'0 0.0
2017-Jul-24 01:28N 32°50' E 034°60'0 0.0
2017-Jul-24 00:54N 32°50' E 034°60'0 0.0
2017-Jul-24 00:30N 32°50' E 034°60'0 0.0
2017-Jul-23 23:59N 32°50' E 034°60'0 0.0
2017-Jul-23 23:20N 32°50' E 034°60'0 0.0
2017-Jul-23 23:00N 32°50' E 034°60'0 0.0
2017-Jul-23 22:29N 32°50' E 034°60'0 0.0
2017-Jul-23 22:00N 32°50' E 034°60'0 0.0
2017-Jul-23 21:26N 32°50' E 034°60'0 0.0
2017-Jul-23 20:55N 32°50' E 034°60'0 0.0
2017-Jul-23 20:28N 32°50' E 034°60'0 0.0
2017-Jul-23 19:58N 32°50' E 034°60'0 0.0
2017-Jul-23 19:26N 32°50' E 034°60'0 0.0
2017-Jul-23 19:00N 32°50' E 034°60'0 0.0
2017-Jul-23 18:28N 32°50' E 034°60'0 0.0
2017-Jul-23 17:58N 32°50' E 034°60'0 0.0
2017-Jul-23 17:26N 32°50' E 034°60'0 0.0
2017-Jul-23 16:59N 32°50' E 034°60'0 0.0
2017-Jul-23 16:30N 32°50' E 034°60'0 0.0
2017-Jul-23 15:59N 32°50' E 034°60'0 0.0
2017-Jul-23 15:23N 32°50' E 034°60'0 0.0
2017-Jul-23 14:54N 32°50' E 034°60'0 0.0
2017-Jul-23 14:30N 32°50' E 034°60'0 0.0
2017-Jul-23 13:58N 32°50' E 034°60'0 0.0
2017-Jul-23 13:26N 32°50' E 034°60'0 0.0
2017-Jul-23 12:52N 32°50' E 034°60'0 0.0
2017-Jul-23 12:30N 32°50' E 034°60'0 0.0
2017-Jul-23 11:58N 32°50' E 034°60'0 0.0
2017-Jul-23 11:26N 32°50' E 034°60'0 0.0
2017-Jul-23 10:53N 32°50' E 034°60'0 0.0
2017-Jul-23 10:29N 32°50' E 034°60'0 0.0
2017-Jul-23 09:57N 32°50' E 034°60'0 0.0
2017-Jul-23 09:25N 32°50' E 034°60'0 0.0
2017-Jul-23 09:00N 32°50' E 034°60'0 0.0
2017-Jul-23 08:27N 32°50' E 034°60'0 0.1
2017-Jul-23 07:58N 32°50' E 034°60'0 0.0
2017-Jul-23 06:12N 32°50' E 034°60'0 0.0
2017-Jul-23 05:58N 32°50' E 034°60'0 0.0
2017-Jul-23 05:26N 32°50' E 034°60'0 0.0
2017-Jul-23 04:51N 32°50' E 034°60'0 0.0
2017-Jul-23 04:29N 32°50' E 034°60'0 0.0
2017-Jul-23 03:59N 32°50' E 034°60'0 0.0
2017-Jul-23 03:24N 32°50' E 034°60'0 0.1
2017-Jul-23 02:59N 32°50' E 034°60'0 0.1
2017-Jul-23 02:30N 32°50' E 034°60'0 0.0
2017-Jul-23 01:57N 32°50' E 034°60'0 0.0
2017-Jul-23 01:25N 32°50' E 034°60'0 0.0
2017-Jul-23 00:59N 32°50' E 034°60'0 0.0
2017-Jul-23 00:30N 32°50' E 034°60'0 0.0
2017-Jul-22 23:58N 32°50' E 034°60'0 0.0
2017-Jul-22 23:25N 32°50' E 034°60'0 0.0
2017-Jul-22 15:01N 32°50' E 034°60'0 0.7
2017-Jul-22 15:00N 32°50' E 034°60'0 0.0
2017-Jul-22 13:58N 32°50' E 034°60'0 0.0
2017-Jul-22 13:25N 32°50' E 034°60'0 0.0
2017-Jul-22 12:59N 32°50' E 034°60'0 0.0
2017-Jul-22 12:30N 32°50' E 034°60'0 0.0
2017-Jul-22 11:57N 32°50' E 034°60'0 0.0
2017-Jul-22 11:29N 32°50' E 034°60'0 0.0
2017-Jul-22 10:59N 32°50' E 034°60'0 0.0
2017-Jul-22 10:30N 32°50' E 034°60'0 0.0
2017-Jul-22 09:57N 32°50' E 034°60'0 0.0
2017-Jul-22 09:26N 32°50' E 034°60'0 0.0
2017-Jul-22 09:00N 32°50' E 034°60'0 0.0
2017-Jul-22 08:30N 32°50' E 034°60'0 0.0
2017-Jul-22 07:57N 32°50' E 034°60'0 0.0
2017-Jul-22 07:25N 32°50' E 034°60'0 0.0
2017-Jul-22 07:00N 32°50' E 034°60'0 0.0
2017-Jul-22 06:30N 32°50' E 034°60'1 1.7
2017-Jul-22 06:00N 32°49' E 035°01'1 2.4
2017-Jul-22 05:30N 32°51' E 035°01'1 2.5
2017-Jul-22 05:01N 32°51' E 034°59'0 0.2
2017-Jul-22 04:28N 32°51' E 034°59'0 0.0
2017-Jul-22 03:58N 32°51' E 034°59'0 0.0
2017-Jul-22 03:26N 32°51' E 034°59'0 0.0
2017-Jul-22 02:54N 32°51' E 034°59'0 0.0
2017-Jul-22 02:29N 32°51' E 034°59'0 0.0
2017-Jul-22 02:01N 32°51' E 034°59'0 0.0
2017-Jul-22 01:25N 32°51' E 034°59'0 0.0
2017-Jul-22 00:54N 32°51' E 034°59'0 0.0
2017-Jul-22 00:29N 32°51' E 034°59'0 0.0
2017-Jul-21 23:58N 32°51' E 034°59'0 0.0
2017-Jul-21 23:24N 32°51' E 034°59'0 0.0
2017-Jul-21 23:00N 32°51' E 034°59'0 0.0
2017-Jul-21 22:30N 32°51' E 034°59'0 0.0
2017-Jul-21 21:58N 32°51' E 034°59'0 0.0
2017-Jul-21 21:26N 32°51' E 034°59'0 0.0
2017-Jul-21 20:59N 32°51' E 034°59'0 0.0
2017-Jul-21 20:30N 32°51' E 034°59'0 0.0
2017-Jul-21 19:55N 32°51' E 034°59'0 0.0
2017-Jul-21 19:27N 32°51' E 034°59'0 0.0
2017-Jul-21 18:59N 32°51' E 034°59'0 0.0
2017-Jul-21 18:30N 32°51' E 034°59'0 0.0
2017-Jul-21 17:57N 32°51' E 034°59'0 0.0
2017-Jul-21 17:26N 32°51' E 034°59'0 0.0
2017-Jul-21 16:59N 32°51' E 034°59'0 0.0
2017-Jul-21 16:29N 32°51' E 034°59'0 0.0
2017-Jul-21 15:55N 32°51' E 034°59'0 0.0
2017-Jul-21 15:26N 32°51' E 034°59'0 0.0
2017-Jul-21 15:01N 32°51' E 034°59'0 0.1
2017-Jul-21 14:30N 32°51' E 034°59'0 0.0
2017-Jul-21 13:57N 32°51' E 034°59'0 0.0
2017-Jul-21 13:24N 32°51' E 034°59'0 0.0
2017-Jul-21 12:59N 32°51' E 034°59'0 0.0
2017-Jul-21 12:30N 32°51' E 034°59'0 0.0
2017-Jul-21 11:59N 32°51' E 034°59'0 0.0
2017-Jul-21 11:25N 32°51' E 034°59'0 0.0
2017-Jul-21 10:59N 32°51' E 034°59'0 0.0
2017-Jul-21 10:29N 32°51' E 034°59'0 0.0
2017-Jul-21 09:56N 32°51' E 034°59'0 0.0
2017-Jul-21 09:24N 32°51' E 034°59'0 0.0
2017-Jul-21 08:54N 32°51' E 034°59'0 0.0
2017-Jul-21 08:30N 32°51' E 034°59'0 0.0
2017-Jul-21 07:57N 32°51' E 034°59'0 0.0
2017-Jul-21 07:24N 32°51' E 034°59'0 0.0
2017-Jul-21 07:00N 32°51' E 034°59'0 0.0
2017-Jul-21 06:29N 32°51' E 034°59'0 0.0
2017-Jul-21 05:57N 32°51' E 034°59'0 0.0
2017-Jul-21 05:24N 32°51' E 034°59'0 0.0
2017-Jul-21 05:00N 32°51' E 034°59'0 0.1
2017-Jul-21 04:28N 32°51' E 034°59'0 0.0
2017-Jul-21 03:58N 32°51' E 034°59'0 0.0
2017-Jul-21 03:23N 32°51' E 034°59'0 0.0
2017-Jul-21 02:53N 32°51' E 034°59'0 0.0
2017-Jul-21 02:29N 32°51' E 034°59'0 0.0
2017-Jul-21 01:57N 32°51' E 034°59'0 0.0
2017-Jul-21 01:23N 32°51' E 034°59'0 0.0
2017-Jul-21 01:00N 32°51' E 034°59'0 0.0
2017-Jul-21 00:29N 32°51' E 034°59'0 0.0
2017-Jul-20 23:58N 32°51' E 034°59'0 0.0
2017-Jul-20 23:20N 32°51' E 034°59'0 0.0
2017-Jul-20 22:53N 32°51' E 034°59'0 0.1
2017-Jul-20 22:30N 32°51' E 034°59'1 1.5
2017-Jul-20 22:00N 32°52' E 034°59'  
2017-Jul-18 10:48N 37°22' E 025°55'3 8.8
2017-Jul-18 10:30N 37°25' E 025°53'4 8.8
2017-Jul-18 10:00N 37°29' E 025°51'16 9.1
2017-Jul-18 08:17N 37°44' E 025°47'  
Track history (hours):
 
Tides and Currents Weather Stations Pressure Air Temp Water Temp Dewpoint Dewpoint Depression Visibility Wind Speed Wind Dir Waves Ship Positions

Nakhchivan

Last reported at 2017-Jul-26 13:15 UTC. Time now 2017-Aug-20 13:40 UTC.
Position N 34°30' E 030°53'.
Warning: this ship's position is 25 days out of date.

Length 139 m; draft 3.8 m.

Type: Cargo ship. MMSI: 215983000.

Date/timePositionNaut miles runAvg speedWind from/ knotsBaromVisibWave heightAir tempDewpointWater temp
2017-Jul-26 13:15N 34°30' E 030°53'4 9.3
2017-Jul-26 12:51N 34°28' E 030°57'3 9.4
2017-Jul-26 12:30N 34°27' E 031°01'9 9.3
2017-Jul-26 11:29N 34°23' E 031°11'5 9.4
2017-Jul-26 11:00N 34°21' E 031°16'5 9.4
2017-Jul-26 10:29N 34°19' E 031°21'5 9.4
2017-Jul-26 10:00N 34°16' E 031°26'5 9.5
2017-Jul-26 09:30N 34°14' E 031°31'5 9.6
2017-Jul-26 09:00N 34°12' E 031°36'5 9.7
2017-Jul-26 08:30N 34°10' E 031°41'5 9.7
2017-Jul-26 08:00N 34°08' E 031°46'5 9.7
2017-Jul-26 07:29N 34°05' E 031°52'5 9.8
2017-Jul-26 07:00N 34°03' E 031°57'5 9.8
2017-Jul-26 06:30N 34°01' E 032°02'5 9.7
2017-Jul-26 06:00N 33°59' E 032°07'5 9.6
2017-Jul-26 05:30N 33°57' E 032°13'5 9.5
2017-Jul-26 05:00N 33°55' E 032°18'11 9.5
2017-Jul-26 03:51N 33°50' E 032°30'3 9.5
2017-Jul-26 03:30N 33°48' E 032°33'5 9.6
2017-Jul-26 03:00N 33°46' E 032°38'5 9.6
2017-Jul-26 02:27N 33°44' E 032°44'4 9.7
2017-Jul-26 02:00N 33°42' E 032°49'5 9.8
2017-Jul-26 01:31N 33°40' E 032°54'7 9.8
2017-Jul-26 00:51N 33°37' E 033°01'4 9.8
2017-Jul-26 00:26N 33°35' E 033°05'4 9.7
2017-Jul-25 23:59N 33°33' E 033°10'6 9.6
2017-Jul-25 23:24N 33°30' E 033°16'6 9.7
2017-Jul-25 22:46N 33°27' E 033°22'3 9.7
2017-Jul-25 22:29N 33°26' E 033°25'5 9.7
2017-Jul-25 22:00N 33°24' E 033°30'5 9.8
2017-Jul-25 21:30N 33°22' E 033°35'5 9.7
2017-Jul-25 21:00N 33°19' E 033°41'10 9.8
2017-Jul-25 19:57N 33°15' E 033°51'14 9.8
2017-Jul-25 18:34N 33°09' E 034°06'1 9.8
2017-Jul-25 18:29N 33°08' E 034°07'5 9.8
2017-Jul-25 17:59N 33°06' E 034°12'5 9.8
2017-Jul-25 17:30N 33°04' E 034°17'5 9.8
2017-Jul-25 16:59N 33°02' E 034°22'5 9.7
2017-Jul-25 16:30N 32°60' E 034°28'5 9.5
2017-Jul-25 16:00N 32°58' E 034°33'5 9.6
2017-Jul-25 15:30N 32°57' E 034°38'5 9.6
2017-Jul-25 15:00N 32°56' E 034°44'10 9.5
2017-Jul-25 13:58N 32°53' E 034°55'4 9.4
2017-Jul-25 13:31N 32°51' E 034°60'2 4.1
2017-Jul-25 13:00N 32°49' E 035°00'1 0.0
2017-Jul-24 23:56N 32°50' E 034°60'0 0.0
2017-Jul-24 02:39N 32°50' E 034°60'0 0.0
2017-Jul-24 02:28N 32°50' E 034°60'0 0.0
2017-Jul-24 01:58N 32°50' E 034°60'0 0.0
2017-Jul-24 01:28N 32°50' E 034°60'0 0.0
2017-Jul-24 00:54N 32°50' E 034°60'0 0.0
2017-Jul-24 00:30N 32°50' E 034°60'0 0.0
2017-Jul-23 23:59N 32°50' E 034°60'0 0.0
2017-Jul-23 23:20N 32°50' E 034°60'0 0.0
2017-Jul-23 23:00N 32°50' E 034°60'0 0.0
2017-Jul-23 22:29N 32°50' E 034°60'0 0.0
2017-Jul-23 22:00N 32°50' E 034°60'0 0.0
2017-Jul-23 21:26N 32°50' E 034°60'0 0.0
2017-Jul-23 20:55N 32°50' E 034°60'0 0.0
2017-Jul-23 20:28N 32°50' E 034°60'0 0.0
2017-Jul-23 19:58N 32°50' E 034°60'0 0.0
2017-Jul-23 19:26N 32°50' E 034°60'0 0.0
2017-Jul-23 19:00N 32°50' E 034°60'0 0.0
2017-Jul-23 18:28N 32°50' E 034°60'0 0.0
2017-Jul-23 17:58N 32°50' E 034°60'0 0.0
2017-Jul-23 17:26N 32°50' E 034°60'0 0.0
2017-Jul-23 16:59N 32°50' E 034°60'0 0.0
2017-Jul-23 16:30N 32°50' E 034°60'0 0.0
2017-Jul-23 15:59N 32°50' E 034°60'0 0.0
2017-Jul-23 15:23N 32°50' E 034°60'0 0.0
2017-Jul-23 14:54N 32°50' E 034°60'0 0.0
2017-Jul-23 14:30N 32°50' E 034°60'0 0.0
2017-Jul-23 13:58N 32°50' E 034°60'0 0.0
2017-Jul-23 13:26N 32°50' E 034°60'0 0.0
2017-Jul-23 12:52N 32°50' E 034°60'0 0.0
2017-Jul-23 12:30N 32°50' E 034°60'0 0.0
2017-Jul-23 11:58N 32°50' E 034°60'0 0.0
2017-Jul-23 11:26N 32°50' E 034°60'0 0.0
2017-Jul-23 10:53N 32°50' E 034°60'0 0.0
2017-Jul-23 10:29N 32°50' E 034°60'0 0.0
2017-Jul-23 09:57N 32°50' E 034°60'0 0.0
2017-Jul-23 09:25N 32°50' E 034°60'0 0.0
2017-Jul-23 09:00N 32°50' E 034°60'0 0.0
2017-Jul-23 08:27N 32°50' E 034°60'0 0.1
2017-Jul-23 07:58N 32°50' E 034°60'0 0.0
2017-Jul-23 06:12N 32°50' E 034°60'0 0.0
2017-Jul-23 05:58N 32°50' E 034°60'0 0.0
2017-Jul-23 05:26N 32°50' E 034°60'0 0.0
2017-Jul-23 04:51N 32°50' E 034°60'0 0.0
2017-Jul-23 04:29N 32°50' E 034°60'0 0.0
2017-Jul-23 03:59N 32°50' E 034°60'0 0.0
2017-Jul-23 03:24N 32°50' E 034°60'0 0.1
2017-Jul-23 02:59N 32°50' E 034°60'0 0.1
2017-Jul-23 02:30N 32°50' E 034°60'0 0.0
2017-Jul-23 01:57N 32°50' E 034°60'0 0.0
2017-Jul-23 01:25N 32°50' E 034°60'0 0.0
2017-Jul-23 00:59N 32°50' E 034°60'0 0.0
2017-Jul-23 00:30N 32°50' E 034°60'0 0.0
2017-Jul-22 23:58N 32°50' E 034°60'0 0.0
2017-Jul-22 23:25N 32°50' E 034°60'0 0.0
2017-Jul-22 15:01N 32°50' E 034°60'0 0.7
2017-Jul-22 15:00N 32°50' E 034°60'0 0.0
2017-Jul-22 13:58N 32°50' E 034°60'0 0.0
2017-Jul-22 13:25N 32°50' E 034°60'0 0.0
2017-Jul-22 12:59N 32°50' E 034°60'0 0.0
2017-Jul-22 12:30N 32°50' E 034°60'0 0.0
2017-Jul-22 11:57N 32°50' E 034°60'0 0.0
2017-Jul-22 11:29N 32°50' E 034°60'0 0.0
2017-Jul-22 10:59N 32°50' E 034°60'0 0.0
2017-Jul-22 10:30N 32°50' E 034°60'0 0.0
2017-Jul-22 09:57N 32°50' E 034°60'0 0.0
2017-Jul-22 09:26N 32°50' E 034°60'0 0.0
2017-Jul-22 09:00N 32°50' E 034°60'0 0.0
2017-Jul-22 08:30N 32°50' E 034°60'0 0.0
2017-Jul-22 07:57N 32°50' E 034°60'0 0.0
2017-Jul-22 07:25N 32°50' E 034°60'0 0.0
2017-Jul-22 07:00N 32°50' E 034°60'0 0.0
2017-Jul-22 06:30N 32°50' E 034°60'1 1.7
2017-Jul-22 06:00N 32°49' E 035°01'1 2.4
2017-Jul-22 05:30N 32°51' E 035°01'1 2.5
2017-Jul-22 05:01N 32°51' E 034°59'0 0.2
2017-Jul-22 04:28N 32°51' E 034°59'0 0.0
2017-Jul-22 03:58N 32°51' E 034°59'0 0.0
2017-Jul-22 03:26N 32°51' E 034°59'0 0.0
2017-Jul-22 02:54N 32°51' E 034°59'0 0.0
2017-Jul-22 02:29N 32°51' E 034°59'0 0.0
2017-Jul-22 02:01N 32°51' E 034°59'0 0.0
2017-Jul-22 01:25N 32°51' E 034°59'0 0.0
2017-Jul-22 00:54N 32°51' E 034°59'0 0.0
2017-Jul-22 00:29N 32°51' E 034°59'0 0.0
2017-Jul-21 23:58N 32°51' E 034°59'0 0.0
2017-Jul-21 23:24N 32°51' E 034°59'0 0.0
2017-Jul-21 23:00N 32°51' E 034°59'0 0.0
2017-Jul-21 22:30N 32°51' E 034°59'0 0.0
2017-Jul-21 21:58N 32°51' E 034°59'0 0.0
2017-Jul-21 21:26N 32°51' E 034°59'0 0.0
2017-Jul-21 20:59N 32°51' E 034°59'0 0.0
2017-Jul-21 20:30N 32°51' E 034°59'0 0.0
2017-Jul-21 19:55N 32°51' E 034°59'0 0.0
2017-Jul-21 19:27N 32°51' E 034°59'0 0.0
2017-Jul-21 18:59N 32°51' E 034°59'0 0.0
2017-Jul-21 18:30N 32°51' E 034°59'0 0.0
2017-Jul-21 17:57N 32°51' E 034°59'0 0.0
2017-Jul-21 17:26N 32°51' E 034°59'0 0.0
2017-Jul-21 16:59N 32°51' E 034°59'0 0.0
2017-Jul-21 16:29N 32°51' E 034°59'0 0.0
2017-Jul-21 15:55N 32°51' E 034°59'0 0.0
2017-Jul-21 15:26N 32°51' E 034°59'0 0.0
2017-Jul-21 15:01N 32°51' E 034°59'0 0.1
2017-Jul-21 14:30N 32°51' E 034°59'0 0.0
2017-Jul-21 13:57N 32°51' E 034°59'0 0.0
2017-Jul-21 13:24N 32°51' E 034°59'0 0.0
2017-Jul-21 12:59N 32°51' E 034°59'0 0.0
2017-Jul-21 12:30N 32°51' E 034°59'0 0.0
2017-Jul-21 11:59N 32°51' E 034°59'0 0.0
2017-Jul-21 11:25N 32°51' E 034°59'0 0.0
2017-Jul-21 10:59N 32°51' E 034°59'0 0.0
2017-Jul-21 10:29N 32°51' E 034°59'0 0.0
2017-Jul-21 09:56N 32°51' E 034°59'0 0.0
2017-Jul-21 09:24N 32°51' E 034°59'0 0.0
2017-Jul-21 08:54N 32°51' E 034°59'0 0.0
2017-Jul-21 08:30N 32°51' E 034°59'0 0.0
2017-Jul-21 07:57N 32°51' E 034°59'0 0.0
2017-Jul-21 07:24N 32°51' E 034°59'0 0.0
2017-Jul-21 07:00N 32°51' E 034°59'0 0.0
2017-Jul-21 06:29N 32°51' E 034°59'0 0.0
2017-Jul-21 05:57N 32°51' E 034°59'0 0.0
2017-Jul-21 05:24N 32°51' E 034°59'0 0.0
2017-Jul-21 05:00N 32°51' E 034°59'0 0.1
2017-Jul-21 04:28N 32°51' E 034°59'0 0.0
2017-Jul-21 03:58N 32°51' E 034°59'0 0.0
2017-Jul-21 03:23N 32°51' E 034°59'0 0.0
2017-Jul-21 02:53N 32°51' E 034°59'0 0.0
2017-Jul-21 02:29N 32°51' E 034°59'0 0.0
2017-Jul-21 01:57N 32°51' E 034°59'0 0.0
2017-Jul-21 01:23N 32°51' E 034°59'0 0.0
2017-Jul-21 01:00N 32°51' E 034°59'0 0.0
2017-Jul-21 00:29N 32°51' E 034°59'0 0.0
2017-Jul-20 23:58N 32°51' E 034°59'0 0.0
2017-Jul-20 23:20N 32°51' E 034°59'0 0.0
2017-Jul-20 22:53N 32°51' E 034°59'0 0.1
2017-Jul-20 22:30N 32°51' E 034°59'1 1.5
2017-Jul-20 22:00N 32°52' E 034°59'  
2017-Jul-18 10:48N 37°22' E 025°55'3 8.8
2017-Jul-18 10:30N 37°25' E 025°53'4 8.8
2017-Jul-18 10:00N 37°29' E 025°51'16 9.1
2017-Jul-18 08:17N 37°44' E 025°47'  

Dump ship's entire track history